• Join FlightAware (Why Join?)
  • Login
  • US Flag 
12:24AM EST


 

Airport Tracker/Info


-or-


 

Live Flight TrackerFlight Track Log ✈ CJT574 ✈ 27-Jun-2013 ✈ CYEG - CYWG

Flight Track Log - Related Links

Times and Time Zones

All times are in EDT time to prevent confusion due to time zone crossing. See the CJT574 flight status page for this flight to view local times or setup timezone preferences in your user account.

Time Position Orientation Groundspeed Altitude Reporting Facility
EDT Latitude Longitude Course Direction KTS MPH feet Rate Location/Type
11:37PM 53.2667 -113.6000 101° East 30 35 2,300  Level Edmonton Center
11:38PM 53.2333 -113.5333 130° Southeast 150 173 3,800 1,500 Climbing Edmonton Center
11:39PM 53.2000 -113.4833 138° Southeast 170 196 5,300 1,200 Climbing Edmonton Center
11:40PM 53.1667 -113.4167 130° Southeast 210 242 6,300 1,020 Climbing Edmonton Center
11:41PM 53.1167 -113.3167 130° Southeast 270 311 7,400 1,620 Climbing Edmonton Center
11:43PM 53.1658 -112.3425 101° East  Level FlightAware Approximate
11:43PM 53.1000 -113.0333 95° East 340 391 11,200  Level Edmonton Center
11:44PM 53.1167 -112.8667 80° East 380 437 12,800 1,800 Climbing Edmonton Center
11:45PM 53.1500 -112.7000 71° East 390 449 14,900 1,920 Climbing Edmonton Center
11:46PM 53.2000 -112.5167 65° Northeast 400 460 16,700 1,740 Climbing Edmonton Center
11:47PM 53.2500 -112.3500 63° Northeast 420 483 18,400 1,500 Climbing Edmonton Center
11:48PM 53.2167 -112.1500 105° East 430 495 19,800 1,320 Climbing Edmonton Center
11:49PM 53.1667 -111.9333 111° Southeast 450 518 21,100 1,380 Climbing Edmonton Center
11:50PM 53.1333 -111.7333 105° East 470 541 22,600 1,380 Climbing Edmonton Center
11:51PM 53.1000 -111.5333 105° East 470 541 23,900 1,140 Climbing Edmonton Center
11:52PM 53.0500 -111.3000 110° East 490 564 24,900 900 Climbing Edmonton Center
11:53PM 53.0000 -111.0667 110° East 500 575 25,700 840 Climbing Edmonton Center
11:54PM 52.9667 -110.8333 103° East 520 598 26,600 900 Climbing Edmonton Center
11:56PM 52.8667 -110.3833 110° East 560 644 28,400 900 Climbing Winnipeg Center
11:57PM 52.8333 -110.1500 103° East 560 644 29,400 1,200 Climbing Winnipeg Center
11:58PM 52.8000 -109.8833 102° East 560 644 30,900 1,260 Climbing Winnipeg Center
11:59PM 52.7500 -109.6500 109° East 560 644 32,000 900 Climbing Winnipeg Center
12:00AM 52.7000 -109.4167 109° East 560 644 32,800 480 Climbing Winnipeg Center
12:01AM 52.6500 -109.1500 107° East 570 656 33,000 60 Climbing Winnipeg Center
12:02AM 52.6167 -108.9167 103° East 570 656 33,000  Level Winnipeg Center
12:03AM 52.5500 -108.6500 112° Southeast 570 656 33,000  Level Winnipeg Center
12:04AM 52.5000 -108.4167 109° East 570 656 33,000  Level Winnipeg Center
12:05AM 52.4667 -108.1833 103° East 570 656 33,000  Level Winnipeg Center
12:06AM 52.4167 -107.9167 107° East 570 656 33,000  Level Winnipeg Center
12:07AM 52.3500 -107.6833 115° Southeast 580 667 33,000  Level Winnipeg Center
12:08AM 52.3167 -107.4167 101° East 580 667 33,000  Level Winnipeg Center
12:09AM 52.2500 -107.1833 115° Southeast 580 667 33,000  Level Winnipeg Center
12:10AM 52.2000 -106.9333 108° East 580 667 33,000  Level Winnipeg Center
12:11AM 52.1333 -106.6667 112° Southeast 590 679 33,000  Level Winnipeg Center
12:12AM 52.1000 -106.4167 102° East 590 679 33,000  Level Winnipeg Center
12:13AM 52.0500 -106.1500 107° East 580 667 33,000  Level Winnipeg Center
12:14AM 52.0000 -105.9333 110° East 580 667 33,000  Level Winnipeg Center
12:15AM 51.9500 -105.6667 107° East 580 667 33,000  Level Winnipeg Center
12:16AM 51.9000 -105.4167 108° East 580 667 33,000  Level Winnipeg Center
12:17AM 51.8500 -105.1833 109° East 580 667 33,000  Level Winnipeg Center
12:18AM 51.8000 -104.9333 108° East 580 667 33,000  Level Winnipeg Center
12:19AM 51.7500 -104.6833 108° East 570 656 33,000  Level Winnipeg Center
12:20AM 51.7000 -104.4500 109° East 580 667 33,000  Level Winnipeg Center
12:21AM 51.6333 -104.2000 113° Southeast 580 667 33,000  Level Winnipeg Center
12:22AM 51.6000 -103.9500 102° East 580 667 33,000  Level Winnipeg Center
12:23AM 51.5333 -103.7000 113° Southeast 580 667 33,000  Level Winnipeg Center
12:24AM 51.4667 -103.4667 115° Southeast 580 667 33,000  Level Winnipeg Center
12:25AM 51.4167 -103.2167 108° East 570 656 33,000  Level Winnipeg Center
12:26AM 51.3667 -102.9667 108° East 570 656 33,000  Level Winnipeg Center
12:27AM 51.3167 -102.7500 110° East 570 656 33,000  Level Winnipeg Center
12:28AM 51.2500 -102.5000 113° Southeast 570 656 33,000  Level Winnipeg Center
12:29AM 51.2167 -102.2667 103° East 570 656 33,000  Level Winnipeg Center
12:30AM 51.1667 -102.0167 108° East 570 656 33,000  Level Winnipeg Center
12:31AM 51.1000 -101.8000 116° Southeast 570 656 33,000  Level Winnipeg Center
12:32AM 51.0500 -101.5500 108° East 570 656 33,000  Level Winnipeg Center
12:33AM 51.0000 -101.3000 108° East 570 656 33,000  Level Winnipeg Center
12:34AM 50.9500 -101.0500 108° East 570 656 33,000  Level Winnipeg Center
12:35AM 50.9000 -100.8167 109° East 570 656 33,000  Level Winnipeg Center
12:36AM 50.8500 -100.6000 110° East 570 656 33,000  Level Winnipeg Center
12:37AM 50.7833 -100.3500 113° Southeast 560 644 33,000  Level Winnipeg Center
12:38AM 50.7333 -100.1333 110° East 560 644 33,000  Level Winnipeg Center
12:39AM 50.6833 -99.9000 109° East 560 644 33,000  Level Winnipeg Center
12:40AM 50.6333 -99.6833 110° East 550 633 33,000  Level Winnipeg Center
12:41AM 50.5833 -99.4500 109° East 550 633 33,000 -660 Level Winnipeg Center
12:42AM 50.5333 -99.2000 107° East 550 633 31,700 -2,340 Descending Winnipeg Center
12:43AM 50.4667 -98.9833 116° Southeast 540 621 28,400 -2,700 Descending Winnipeg Center
12:44AM 50.4000 -98.8333 125° Southeast 520 598 26,300 -2,160 Descending Winnipeg Center
12:45AM 50.3167 -98.6500 125° Southeast 490 564 24,100 -2,220 Descending Winnipeg Center
12:46AM 50.2500 -98.4500 117° Southeast 460 529 21,900 -2,640 Descending Winnipeg Center
12:47AM 50.1833 -98.3000 125° Southeast 440 506 18,900 -2,760 Descending Winnipeg Center
12:48AM 50.1167 -98.1333 122° Southeast 430 495 16,400 -3,180 Descending Winnipeg Center
12:49AM 50.0667 -97.9833 117° Southeast 420 483 12,600 -2,580 Descending Winnipeg Center
12:50AM 50.0000 -97.8500 128° Southeast 390 449 11,300 -1,200 Descending Winnipeg Center
12:51AM 49.9500 -97.7167 120° Southeast 340 391 10,200 -1,500 Descending Winnipeg Center
12:52AM 49.9000 -97.6167 128° Southeast 330 380 8,300 -1,800 Descending Winnipeg Center
12:53AM 49.8500 -97.4833 120° Southeast 320 368 6,600 -1,620 Descending Winnipeg Center
12:54AM 49.7833 -97.4000 141° Southeast 320 368 5,100 -1,320 Descending Winnipeg Center
12:55AM 49.7167 -97.3333 147° Southeast 280 322 4,000 -900 Descending Winnipeg Center
12:56AM 49.7500 -97.2833 44° Northeast 190 219 3,400 -720 Descending Winnipeg Center
12:57AM 49.7833 -97.2500 33° Northeast 160 184 2,600 -840 Descending Winnipeg Center
12:58AM 49.8333 -97.2500 360° North 140 161 1,800 -720 Descending Winnipeg Center
12:59AM 49.8667 -97.2333 18° North 130 150 1,200 -540 Descending Winnipeg Center
01:00AM 49.9000 -97.2333 360° North 90 104 800 -420 Descending Winnipeg Center